Kolkata, India

10:28 AM IST on December 29, 2014 (GMT +0530)
Netaji Subhash Chandra Bose International | Change Station
CLOSE
Current Station
Airport
Location: Kolkata,
Elevation: 20 ft
Nearby Weather Stations

Elev 20 ft 22.65 °N, 88.44 °E | Updated 8 minutes ago

Smoke
Smoke
66 °F
Feels Like 66 °F
N
8
Wind Variable Wind from North

Today
High -- | Low -- °F
--% Chance of Precip.
Yesterday
High -- | Low -- °F
Precip. -- in
6:15 AM 5:00 PM
First Quarter, 55% visible
Pressure 30.01 in
Visibility 1.0 miles
Clouds Few 10000 ft
Dew Point 52 °F
Humidity 60%
Rainfall 0.00 in
Snow Depth Not available.
UV 7 out of 12
Pollen Not available.
Air Quality Not available.
Flu Activity Not available.
METAR VECC 290450Z 35007KT 1600 FU FEW100 19/11 Q1016 NOSIG

More Conditions Fewer Conditions

Pressure 30.01 in
Visibility 1.0 miles
Clouds Few 10000 ft
Dew Point 52 °F
Humidity 60%
Rainfall 0.00 in
Snow Depth Not available.
UV 7 out of 12
Pollen Not available.
Air Quality Not available.
Flu Activity Not available.
METAR VECC 290450Z 35007KT 1600 FU FEW100 19/11 Q1016 NOSIG

More Conditions Fewer Conditions

10-Day Weather Forecast

Almanac

Astronomy

Dec. 29, 2014 Rise Set
Actual Time
Civil Twilight
Nautical Twilight
Astronomical Twilight
Moon
Length of Visible Light
Length of Day
Tomorrow will be .
, % of the Moon is Illuminated

Today's Extremes

Country Highs Country Lows

Community

WunderPhotos

Upload Photos

1,781,530 photos uploaded!

WunderBlogs® & News

Nearby

Air Quality

  Air Quality AQ Index Pollutant
Not available.

Snow Depth

Station Depth Elevation

Earthquake Activity

City Distance Mag. Time & Date
Minimum magnitude displayed is 2.5.

Coastal Water Temperatures

Place Temperature

Nearby Weather Stations